sensor_id;sensor_type;location;lat;lon;timestamp;temperature;humidity
38090;DHT22;23904;52.322;10.232;2022-08-25T00:01:37;21.90;82.00
38090;DHT22;23904;52.322;10.232;2022-08-25T00:04:07;21.90;82.20
38090;DHT22;23904;52.322;10.232;2022-08-25T00:06:34;21.80;82.60
38090;DHT22;23904;52.322;10.232;2022-08-25T00:09:00;21.70;83.00
38090;DHT22;23904;52.322;10.232;2022-08-25T00:11:29;21.70;83.10
38090;DHT22;23904;52.322;10.232;2022-08-25T00:13:58;21.70;83.30
38090;DHT22;23904;52.322;10.232;2022-08-25T00:16:26;21.60;83.70
38090;DHT22;23904;52.322;10.232;2022-08-25T00:18:54;21.60;84.00
38090;DHT22;23904;52.322;10.232;2022-08-25T00:21:22;21.50;84.40
38090;DHT22;23904;52.322;10.232;2022-08-25T00:23:48;21.50;85.00
38090;DHT22;23904;52.322;10.232;2022-08-25T00:26:14;21.40;85.40
38090;DHT22;23904;52.322;10.232;2022-08-25T00:28:41;21.40;85.80
38090;DHT22;23904;52.322;10.232;2022-08-25T00:31:14;21.40;86.10
38090;DHT22;23904;52.322;10.232;2022-08-25T00:33:40;21.30;86.80
38090;DHT22;23904;52.322;10.232;2022-08-25T00:36:07;21.40;86.10
38090;DHT22;23904;52.322;10.232;2022-08-25T00:38:33;21.30;86.50
38090;DHT22;23904;52.322;10.232;2022-08-25T00:40:59;21.30;86.80
38090;DHT22;23904;52.322;10.232;2022-08-25T00:46:07;21.20;87.70
38090;DHT22;23904;52.322;10.232;2022-08-25T00:48:33;21.10;88.00
38090;DHT22;23904;52.322;10.232;2022-08-25T00:50:59;21.10;88.20
38090;DHT22;23904;52.322;10.232;2022-08-25T00:53:26;21.10;88.40
38090;DHT22;23904;52.322;10.232;2022-08-25T00:55:52;21.00;88.70
38090;DHT22;23904;52.322;10.232;2022-08-25T00:58:22;21.00;89.90
38090;DHT22;23904;52.322;10.232;2022-08-25T01:00:51;20.90;89.90
38090;DHT22;23904;52.322;10.232;2022-08-25T01:03:19;20.80;90.00
38090;DHT22;23904;52.322;10.232;2022-08-25T01:05:46;20.80;90.30
38090;DHT22;23904;52.322;10.232;2022-08-25T01:08:12;20.70;90.40
38090;DHT22;23904;52.322;10.232;2022-08-25T01:10:41;20.60;90.70
38090;DHT22;23904;52.322;10.232;2022-08-25T01:13:20;20.60;90.80
38090;DHT22;23904;52.322;10.232;2022-08-25T01:15:49;20.50;90.90
38090;DHT22;23904;52.322;10.232;2022-08-25T01:18:17;20.50;91.60
38090;DHT22;23904;52.322;10.232;2022-08-25T01:23:08;20.50;91.60
38090;DHT22;23904;52.322;10.232;2022-08-25T01:26:03;20.50;91.50
38090;DHT22;23904;52.322;10.232;2022-08-25T01:28:29;20.40;91.70
38090;DHT22;23904;52.322;10.232;2022-08-25T01:30:55;20.50;91.90
38090;DHT22;23904;52.322;10.232;2022-08-25T01:33:21;20.50;91.70
38090;DHT22;23904;52.322;10.232;2022-08-25T01:35:47;20.40;92.00
38090;DHT22;23904;52.322;10.232;2022-08-25T01:38:12;20.40;92.30
38090;DHT22;23904;52.322;10.232;2022-08-25T01:40:39;20.30;92.40
38090;DHT22;23904;52.322;10.232;2022-08-25T01:45:31;20.20;92.80
38090;DHT22;23904;52.322;10.232;2022-08-25T01:47:57;20.10;93.20
38090;DHT22;23904;52.322;10.232;2022-08-25T01:50:22;20.10;93.50
38090;DHT22;23904;52.322;10.232;2022-08-25T01:55:25;20.00;94.00
38090;DHT22;23904;52.322;10.232;2022-08-25T01:57:51;20.00;94.20
38090;DHT22;23904;52.322;10.232;2022-08-25T02:00:18;20.00;94.60
38090;DHT22;23904;52.322;10.232;2022-08-25T02:02:44;19.90;94.60
38090;DHT22;23904;52.322;10.232;2022-08-25T02:05:12;19.80;95.10
38090;DHT22;23904;52.322;10.232;2022-08-25T02:07:39;19.90;95.30
38090;DHT22;23904;52.322;10.232;2022-08-25T02:10:06;20.00;95.20
38090;DHT22;23904;52.322;10.232;2022-08-25T02:12:32;20.10;95.00
38090;DHT22;23904;52.322;10.232;2022-08-25T02:14:59;20.10;95.10
38090;DHT22;23904;52.322;10.232;2022-08-25T02:17:27;20.10;95.20
38090;DHT22;23904;52.322;10.232;2022-08-25T02:19:52;20.10;95.50
38090;DHT22;23904;52.322;10.232;2022-08-25T02:22:19;20.10;95.50
38090;DHT22;23904;52.322;10.232;2022-08-25T02:24:45;20.10;95.70
38090;DHT22;23904;52.322;10.232;2022-08-25T02:27:11;20.00;95.90
38090;DHT22;23904;52.322;10.232;2022-08-25T02:29:36;20.00;96.10
38090;DHT22;23904;52.322;10.232;2022-08-25T02:32:02;20.00;96.20
38090;DHT22;23904;52.322;10.232;2022-08-25T02:34:28;19.90;96.70
38090;DHT22;23904;52.322;10.232;2022-08-25T02:36:53;20.00;96.80
38090;DHT22;23904;52.322;10.232;2022-08-25T02:39:19;19.90;96.80
38090;DHT22;23904;52.322;10.232;2022-08-25T02:41:44;19.80;97.20
38090;DHT22;23904;52.322;10.232;2022-08-25T02:44:10;19.80;97.50
38090;DHT22;23904;52.322;10.232;2022-08-25T02:46:36;19.80;97.70
38090;DHT22;23904;52.322;10.232;2022-08-25T02:49:02;19.80;97.80
38090;DHT22;23904;52.322;10.232;2022-08-25T02:51:28;19.80;98.00
38090;DHT22;23904;52.322;10.232;2022-08-25T02:53:55;19.80;98.00
38090;DHT22;23904;52.322;10.232;2022-08-25T02:56:22;19.80;98.20
38090;DHT22;23904;52.322;10.232;2022-08-25T02:58:48;19.80;98.40
38090;DHT22;23904;52.322;10.232;2022-08-25T03:01:15;19.70;98.80
38090;DHT22;23904;52.322;10.232;2022-08-25T03:03:43;19.60;99.10
38090;DHT22;23904;52.322;10.232;2022-08-25T03:06:11;19.60;99.40
38090;DHT22;23904;52.322;10.232;2022-08-25T03:08:37;19.60;99.60
38090;DHT22;23904;52.322;10.232;2022-08-25T03:11:04;19.60;99.90
38090;DHT22;23904;52.322;10.232;2022-08-25T03:13:30;19.60;99.90
38090;DHT22;23904;52.322;10.232;2022-08-25T03:15:57;19.60;99.90
38090;DHT22;23904;52.322;10.232;2022-08-25T03:18:23;19.60;99.90
38090;DHT22;23904;52.322;10.232;2022-08-25T03:20:49;19.60;99.90
38090;DHT22;23904;52.322;10.232;2022-08-25T03:23:14;19.50;99.90
38090;DHT22;23904;52.322;10.232;2022-08-25T03:25:40;19.60;99.90
38090;DHT22;23904;52.322;10.232;2022-08-25T03:28:24;19.50;99.90
38090;DHT22;23904;52.322;10.232;2022-08-25T03:30:51;19.50;99.90
38090;DHT22;23904;52.322;10.232;2022-08-25T03:33:17;19.60;99.90
38090;DHT22;23904;52.322;10.232;2022-08-25T03:35:42;19.50;99.90
38090;DHT22;23904;52.322;10.232;2022-08-25T03:38:08;19.40;99.90
38090;DHT22;23904;52.322;10.232;2022-08-25T03:40:34;19.40;99.90
38090;DHT22;23904;52.322;10.232;2022-08-25T03:42:59;19.20;99.90
38090;DHT22;23904;52.322;10.232;2022-08-25T03:45:25;19.30;99.90
38090;DHT22;23904;52.322;10.232;2022-08-25T03:47:51;19.30;99.90
38090;DHT22;23904;52.322;10.232;2022-08-25T03:50:19;19.30;99.90
38090;DHT22;23904;52.322;10.232;2022-08-25T03:52:50;19.30;99.90
38090;DHT22;23904;52.322;10.232;2022-08-25T03:55:15;19.30;99.90
38090;DHT22;23904;52.322;10.232;2022-08-25T03:57:41;19.30;99.90
38090;DHT22;23904;52.322;10.232;2022-08-25T04:00:08;19.30;99.90
38090;DHT22;23904;52.322;10.232;2022-08-25T04:02:36;19.30;99.90
38090;DHT22;23904;52.322;10.232;2022-08-25T04:05:01;19.40;99.90
38090;DHT22;23904;52.322;10.232;2022-08-25T04:07:27;19.40;99.90
38090;DHT22;23904;52.322;10.232;2022-08-25T04:09:53;19.30;99.90
38090;DHT22;23904;52.322;10.232;2022-08-25T04:12:19;19.30;99.90
38090;DHT22;23904;52.322;10.232;2022-08-25T04:14:44;19.20;99.90
38090;DHT22;23904;52.322;10.232;2022-08-25T04:17:10;19.20;99.90
38090;DHT22;23904;52.322;10.232;2022-08-25T04:19:35;19.30;99.90
38090;DHT22;23904;52.322;10.232;2022-08-25T04:22:01;19.20;99.90
38090;DHT22;23904;52.322;10.232;2022-08-25T04:24:27;19.30;99.90
38090;DHT22;23904;52.322;10.232;2022-08-25T04:26:53;19.30;99.90
38090;DHT22;23904;52.322;10.232;2022-08-25T04:29:20;19.30;99.90
38090;DHT22;23904;52.322;10.232;2022-08-25T04:31:46;19.30;99.90
38090;DHT22;23904;52.322;10.232;2022-08-25T04:34:15;19.30;99.90
38090;DHT22;23904;52.322;10.232;2022-08-25T04:36:41;19.20;99.90
38090;DHT22;23904;52.322;10.232;2022-08-25T04:39:06;19.20;99.90
38090;DHT22;23904;52.322;10.232;2022-08-25T04:41:32;19.20;99.90
38090;DHT22;23904;52.322;10.232;2022-08-25T04:43:59;19.10;99.90
38090;DHT22;23904;52.322;10.232;2022-08-25T04:46:27;19.10;99.90
38090;DHT22;23904;52.322;10.232;2022-08-25T04:48:55;19.10;99.90
38090;DHT22;23904;52.322;10.232;2022-08-25T04:51:27;19.10;99.90
38090;DHT22;23904;52.322;10.232;2022-08-25T04:53:53;19.10;99.90
38090;DHT22;23904;52.322;10.232;2022-08-25T04:56:21;19.10;99.90
38090;DHT22;23904;52.322;10.232;2022-08-25T04:58:49;19.10;99.90
38090;DHT22;23904;52.322;10.232;2022-08-25T05:01:18;19.10;99.90
38090;DHT22;23904;52.322;10.232;2022-08-25T05:03:45;19.10;99.90
38090;DHT22;23904;52.322;10.232;2022-08-25T05:06:10;19.10;99.90
38090;DHT22;23904;52.322;10.232;2022-08-25T05:08:36;19.10;99.90
38090;DHT22;23904;52.322;10.232;2022-08-25T05:11:10;19.10;99.90
38090;DHT22;23904;52.322;10.232;2022-08-25T05:13:37;19.10;99.90
38090;DHT22;23904;52.322;10.232;2022-08-25T05:16:03;19.10;99.90
38090;DHT22;23904;52.322;10.232;2022-08-25T05:18:30;19.10;99.90
38090;DHT22;23904;52.322;10.232;2022-08-25T05:21:01;19.20;99.90
38090;DHT22;23904;52.322;10.232;2022-08-25T05:23:27;19.20;99.90
38090;DHT22;23904;52.322;10.232;2022-08-25T05:25:52;19.20;99.90
38090;DHT22;23904;52.322;10.232;2022-08-25T05:28:19;19.30;99.90
38090;DHT22;23904;52.322;10.232;2022-08-25T05:30:45;19.30;99.90
38090;DHT22;23904;52.322;10.232;2022-08-25T05:33:14;19.40;99.90
38090;DHT22;23904;52.322;10.232;2022-08-25T05:35:41;19.40;99.90
38090;DHT22;23904;52.322;10.232;2022-08-25T05:38:07;19.40;99.90
38090;DHT22;23904;52.322;10.232;2022-08-25T05:40:33;19.40;99.90
38090;DHT22;23904;52.322;10.232;2022-08-25T05:42:59;19.40;99.90
38090;DHT22;23904;52.322;10.232;2022-08-25T05:45:24;19.50;99.90
38090;DHT22;23904;52.322;10.232;2022-08-25T05:47:50;19.50;99.90
38090;DHT22;23904;52.322;10.232;2022-08-25T05:50:16;19.60;99.90
38090;DHT22;23904;52.322;10.232;2022-08-25T05:52:42;19.70;99.90
38090;DHT22;23904;52.322;10.232;2022-08-25T05:55:09;19.70;99.90
38090;DHT22;23904;52.322;10.232;2022-08-25T05:57:35;19.70;99.90
38090;DHT22;23904;52.322;10.232;2022-08-25T06:00:01;19.70;99.90
38090;DHT22;23904;52.322;10.232;2022-08-25T06:02:26;19.70;99.90
38090;DHT22;23904;52.322;10.232;2022-08-25T06:05:14;19.80;99.90
38090;DHT22;23904;52.322;10.232;2022-08-25T06:07:42;19.80;99.90
38090;DHT22;23904;52.322;10.232;2022-08-25T06:10:08;19.80;99.90
38090;DHT22;23904;52.322;10.232;2022-08-25T06:12:39;19.80;99.90
38090;DHT22;23904;52.322;10.232;2022-08-25T06:15:05;19.90;99.90
38090;DHT22;23904;52.322;10.232;2022-08-25T06:17:31;20.00;99.90
38090;DHT22;23904;52.322;10.232;2022-08-25T06:19:56;20.10;99.90
38090;DHT22;23904;52.322;10.232;2022-08-25T06:22:22;20.10;99.90
38090;DHT22;23904;52.322;10.232;2022-08-25T06:24:50;20.10;99.90
38090;DHT22;23904;52.322;10.232;2022-08-25T06:27:15;20.20;99.90
38090;DHT22;23904;52.322;10.232;2022-08-25T06:29:41;20.30;99.90
38090;DHT22;23904;52.322;10.232;2022-08-25T06:32:06;20.40;99.90
38090;DHT22;23904;52.322;10.232;2022-08-25T06:34:33;20.50;99.90
38090;DHT22;23904;52.322;10.232;2022-08-25T06:36:58;20.60;99.90
38090;DHT22;23904;52.322;10.232;2022-08-25T06:39:24;20.70;99.90
38090;DHT22;23904;52.322;10.232;2022-08-25T06:41:51;20.80;99.90
38090;DHT22;23904;52.322;10.232;2022-08-25T06:44:17;20.90;99.90
38090;DHT22;23904;52.322;10.232;2022-08-25T06:46:42;21.00;99.90
38090;DHT22;23904;52.322;10.232;2022-08-25T06:49:08;21.10;99.90
38090;DHT22;23904;52.322;10.232;2022-08-25T06:51:33;21.20;99.90
38090;DHT22;23904;52.322;10.232;2022-08-25T06:54:00;21.20;99.90
38090;DHT22;23904;52.322;10.232;2022-08-25T06:56:25;21.40;99.90
38090;DHT22;23904;52.322;10.232;2022-08-25T06:58:51;21.50;99.90
38090;DHT22;23904;52.322;10.232;2022-08-25T07:01:20;21.50;99.90
38090;DHT22;23904;52.322;10.232;2022-08-25T07:03:48;21.60;99.90
38090;DHT22;23904;52.322;10.232;2022-08-25T07:06:15;21.70;99.90
38090;DHT22;23904;52.322;10.232;2022-08-25T07:08:43;21.80;99.90
38090;DHT22;23904;52.322;10.232;2022-08-25T07:11:10;21.80;99.90
38090;DHT22;23904;52.322;10.232;2022-08-25T07:13:36;21.90;99.90
38090;DHT22;23904;52.322;10.232;2022-08-25T07:16:03;22.00;99.90
38090;DHT22;23904;52.322;10.232;2022-08-25T07:18:29;22.10;99.90
38090;DHT22;23904;52.322;10.232;2022-08-25T07:20:55;22.20;99.90
38090;DHT22;23904;52.322;10.232;2022-08-25T07:23:22;22.30;99.90
38090;DHT22;23904;52.322;10.232;2022-08-25T07:25:49;22.30;99.90
38090;DHT22;23904;52.322;10.232;2022-08-25T07:28:15;22.40;99.90
38090;DHT22;23904;52.322;10.232;2022-08-25T07:30:41;22.50;99.90
38090;DHT22;23904;52.322;10.232;2022-08-25T07:33:07;22.60;99.90
38090;DHT22;23904;52.322;10.232;2022-08-25T07:35:33;22.70;99.90
38090;DHT22;23904;52.322;10.232;2022-08-25T07:37:58;22.80;99.90
38090;DHT22;23904;52.322;10.232;2022-08-25T07:40:27;22.90;99.90
38090;DHT22;23904;52.322;10.232;2022-08-25T07:42:56;22.90;99.90
38090;DHT22;23904;52.322;10.232;2022-08-25T07:45:24;23.10;99.90
38090;DHT22;23904;52.322;10.232;2022-08-25T07:47:56;23.30;99.90
38090;DHT22;23904;52.322;10.232;2022-08-25T07:50:21;23.30;99.90
38090;DHT22;23904;52.322;10.232;2022-08-25T07:52:47;23.50;99.90
38090;DHT22;23904;52.322;10.232;2022-08-25T07:55:13;23.60;99.90
38090;DHT22;23904;52.322;10.232;2022-08-25T07:57:39;23.60;99.90
38090;DHT22;23904;52.322;10.232;2022-08-25T08:00:06;23.70;99.90
38090;DHT22;23904;52.322;10.232;2022-08-25T08:02:32;24.00;99.90
38090;DHT22;23904;52.322;10.232;2022-08-25T08:04:58;24.10;99.90
38090;DHT22;23904;52.322;10.232;2022-08-25T08:07:25;24.20;99.90
38090;DHT22;23904;52.322;10.232;2022-08-25T08:09:51;24.30;99.90
38090;DHT22;23904;52.322;10.232;2022-08-25T08:12:17;24.50;99.90
38090;DHT22;23904;52.322;10.232;2022-08-25T08:14:43;24.60;99.90
38090;DHT22;23904;52.322;10.232;2022-08-25T08:17:10;24.70;99.90
38090;DHT22;23904;52.322;10.232;2022-08-25T08:19:36;24.90;99.90
38090;DHT22;23904;52.322;10.232;2022-08-25T08:22:03;25.40;99.90
38090;DHT22;23904;52.322;10.232;2022-08-25T08:24:30;25.70;99.90
38090;DHT22;23904;52.322;10.232;2022-08-25T08:26:55;25.90;99.90
38090;DHT22;23904;52.322;10.232;2022-08-25T08:29:21;25.90;99.90
38090;DHT22;23904;52.322;10.232;2022-08-25T08:31:47;26.10;99.90
38090;DHT22;23904;52.322;10.232;2022-08-25T08:34:13;26.20;99.90
38090;DHT22;23904;52.322;10.232;2022-08-25T08:36:39;26.70;99.90
38090;DHT22;23904;52.322;10.232;2022-08-25T08:39:05;27.50;98.00
38090;DHT22;23904;52.322;10.232;2022-08-25T08:42:02;28.10;96.40
38090;DHT22;23904;52.322;10.232;2022-08-25T08:44:53;28.90;95.60
38090;DHT22;23904;52.322;10.232;2022-08-25T08:47:58;29.90;93.50
38090;DHT22;23904;52.322;10.232;2022-08-25T08:53:06;32.60;84.30
38090;DHT22;23904;52.322;10.232;2022-08-25T08:55:39;32.60;81.30
38090;DHT22;23904;52.322;10.232;2022-08-25T08:58:18;33.50;79.80
38090;DHT22;23904;52.322;10.232;2022-08-25T09:00:48;34.50;74.00
38090;DHT22;23904;52.322;10.232;2022-08-25T09:03:32;33.90;74.00
38090;DHT22;23904;52.322;10.232;2022-08-25T09:06:04;34.00;73.20
38090;DHT22;23904;52.322;10.232;2022-08-25T09:08:31;34.10;71.80
38090;DHT22;23904;52.322;10.232;2022-08-25T09:13:49;32.50;75.50
38090;DHT22;23904;52.322;10.232;2022-08-25T09:19:28;32.30;75.50
38090;DHT22;23904;52.322;10.232;2022-08-25T09:24:56;31.50;77.80
38090;DHT22;23904;52.322;10.232;2022-08-25T09:30:20;32.10;76.10
38090;DHT22;23904;52.322;10.232;2022-08-25T09:32:49;33.10;73.90
38090;DHT22;23904;52.322;10.232;2022-08-25T09:35:20;33.50;72.00
38090;DHT22;23904;52.322;10.232;2022-08-25T09:37:58;33.00;72.70
38090;DHT22;23904;52.322;10.232;2022-08-25T09:40:27;32.70;73.10
38090;DHT22;23904;52.322;10.232;2022-08-25T09:42:55;32.60;73.60
38090;DHT22;23904;52.322;10.232;2022-08-25T09:45:44;32.70;73.80
38090;DHT22;23904;52.322;10.232;2022-08-25T09:48:47;31.70;75.90
38090;DHT22;23904;52.322;10.232;2022-08-25T09:56:26;30.30;80.30
38090;DHT22;23904;52.322;10.232;2022-08-25T09:58:54;29.60;82.30
38090;DHT22;23904;52.322;10.232;2022-08-25T10:01:21;29.40;83.30
38090;DHT22;23904;52.322;10.232;2022-08-25T10:03:59;29.40;83.90
38090;DHT22;23904;52.322;10.232;2022-08-25T10:06:43;28.90;85.60
38090;DHT22;23904;52.322;10.232;2022-08-25T10:09:12;29.50;85.30
38090;DHT22;23904;52.322;10.232;2022-08-25T10:11:46;30.50;82.10
38090;DHT22;23904;52.322;10.232;2022-08-25T10:16:49;30.90;79.20
38090;DHT22;23904;52.322;10.232;2022-08-25T10:22:02;29.90;81.50
38090;DHT22;23904;52.322;10.232;2022-08-25T10:24:28;29.30;82.80
38090;DHT22;23904;52.322;10.232;2022-08-25T10:30:16;28.80;84.50
38090;DHT22;23904;52.322;10.232;2022-08-25T10:32:53;28.70;85.10
38090;DHT22;23904;52.322;10.232;2022-08-25T10:35:28;28.40;86.20
38090;DHT22;23904;52.322;10.232;2022-08-25T10:40:56;29.60;83.10
38090;DHT22;23904;52.322;10.232;2022-08-25T10:43:37;30.30;81.50
38090;DHT22;23904;52.322;10.232;2022-08-25T10:46:14;31.90;76.60
38090;DHT22;23904;52.322;10.232;2022-08-25T10:51:34;32.50;73.30
38090;DHT22;23904;52.322;10.232;2022-08-25T11:04:56;35.80;64.20
38090;DHT22;23904;52.322;10.232;2022-08-25T11:10:05;36.50;60.90
38090;DHT22;23904;52.322;10.232;2022-08-25T11:15:39;37.40;57.40
38090;DHT22;23904;52.322;10.232;2022-08-25T11:18:10;37.40;56.40
38090;DHT22;23904;52.322;10.232;2022-08-25T11:23:40;36.60;58.20
38090;DHT22;23904;52.322;10.232;2022-08-25T11:26:11;37.50;57.50
38090;DHT22;23904;52.322;10.232;2022-08-25T11:28:53;37.80;55.70
38090;DHT22;23904;52.322;10.232;2022-08-25T11:31:22;36.90;56.00
38090;DHT22;23904;52.322;10.232;2022-08-25T11:33:49;35.70;58.00
38090;DHT22;23904;52.322;10.232;2022-08-25T11:36:26;35.00;59.70
38090;DHT22;23904;52.322;10.232;2022-08-25T11:57:45;36.90;54.70
38090;DHT22;23904;52.322;10.232;2022-08-25T12:00:42;36.80;55.60
38090;DHT22;23904;52.322;10.232;2022-08-25T12:03:44;37.00;55.00
38090;DHT22;23904;52.322;10.232;2022-08-25T12:06:30;37.10;54.40
38090;DHT22;23904;52.322;10.232;2022-08-25T12:30:00;31.30;65.10
38090;DHT22;23904;52.322;10.232;2022-08-25T12:38:13;30.50;67.40
38090;DHT22;23904;52.322;10.232;2022-08-25T12:43:30;30.60;68.40
38090;DHT22;23904;52.322;10.232;2022-08-25T12:57:00;30.20;69.00
38090;DHT22;23904;52.322;10.232;2022-08-25T12:59:35;30.30;70.00
38090;DHT22;23904;52.322;10.232;2022-08-25T13:02:27;30.40;69.50
38090;DHT22;23904;52.322;10.232;2022-08-25T13:13:05;32.40;64.00
38090;DHT22;23904;52.322;10.232;2022-08-25T13:15:47;33.30;61.30
38090;DHT22;23904;52.322;10.232;2022-08-25T13:18:28;34.00;60.10
38090;DHT22;23904;52.322;10.232;2022-08-25T13:23:28;32.80;61.00
38090;DHT22;23904;52.322;10.232;2022-08-25T13:25:55;32.30;62.30
38090;DHT22;23904;52.322;10.232;2022-08-25T13:28:37;32.00;63.60
38090;DHT22;23904;52.322;10.232;2022-08-25T13:31:07;31.60;65.00
38090;DHT22;23904;52.322;10.232;2022-08-25T13:33:34;31.60;65.10
38090;DHT22;23904;52.322;10.232;2022-08-25T13:36:01;31.60;64.10
38090;DHT22;23904;52.322;10.232;2022-08-25T13:38:47;31.40;64.90
38090;DHT22;23904;52.322;10.232;2022-08-25T13:41:22;31.30;65.60
38090;DHT22;23904;52.322;10.232;2022-08-25T13:43:56;31.40;65.00
38090;DHT22;23904;52.322;10.232;2022-08-25T13:46:22;31.50;63.80
38090;DHT22;23904;52.322;10.232;2022-08-25T13:48:48;31.50;63.40
38090;DHT22;23904;52.322;10.232;2022-08-25T13:51:23;31.30;64.10
38090;DHT22;23904;52.322;10.232;2022-08-25T13:56:27;31.10;64.80
38090;DHT22;23904;52.322;10.232;2022-08-25T13:58:54;31.10;65.50
38090;DHT22;23904;52.322;10.232;2022-08-25T14:01:22;31.10;65.70
38090;DHT22;23904;52.322;10.232;2022-08-25T14:03:49;31.20;65.70
38090;DHT22;23904;52.322;10.232;2022-08-25T14:08:45;31.40;65.30
38090;DHT22;23904;52.322;10.232;2022-08-25T14:11:23;31.20;65.00
38090;DHT22;23904;52.322;10.232;2022-08-25T14:14:07;31.10;65.00
38090;DHT22;23904;52.322;10.232;2022-08-25T14:17:04;31.10;64.90
38090;DHT22;23904;52.322;10.232;2022-08-25T14:19:30;31.00;65.30
38090;DHT22;23904;52.322;10.232;2022-08-25T14:21:57;31.00;65.00
38090;DHT22;23904;52.322;10.232;2022-08-25T14:24:30;31.00;65.30
38090;DHT22;23904;52.322;10.232;2022-08-25T14:26:56;30.90;65.30
38090;DHT22;23904;52.322;10.232;2022-08-25T14:29:21;31.20;65.00
38090;DHT22;23904;52.322;10.232;2022-08-25T14:31:48;31.40;65.00
38090;DHT22;23904;52.322;10.232;2022-08-25T14:34:30;31.70;64.50
38090;DHT22;23904;52.322;10.232;2022-08-25T14:36:56;31.90;63.80
38090;DHT22;23904;52.322;10.232;2022-08-25T14:39:24;31.70;63.60
38090;DHT22;23904;52.322;10.232;2022-08-25T14:41:50;31.40;64.50
38090;DHT22;23904;52.322;10.232;2022-08-25T14:44:16;31.20;64.90
38090;DHT22;23904;52.322;10.232;2022-08-25T14:49:18;31.10;65.00
38090;DHT22;23904;52.322;10.232;2022-08-25T14:51:44;31.00;65.90
38090;DHT22;23904;52.322;10.232;2022-08-25T14:54:12;30.90;66.20
38090;DHT22;23904;52.322;10.232;2022-08-25T14:56:40;31.00;65.80
38090;DHT22;23904;52.322;10.232;2022-08-25T14:59:06;30.90;66.10
38090;DHT22;23904;52.322;10.232;2022-08-25T15:01:32;30.70;66.10
38090;DHT22;23904;52.322;10.232;2022-08-25T15:04:08;30.70;65.70
38090;DHT22;23904;52.322;10.232;2022-08-25T15:06:35;30.60;66.30
38090;DHT22;23904;52.322;10.232;2022-08-25T15:09:02;30.60;65.80
38090;DHT22;23904;52.322;10.232;2022-08-25T15:11:38;30.60;65.60
38090;DHT22;23904;52.322;10.232;2022-08-25T15:14:04;30.60;66.30
38090;DHT22;23904;52.322;10.232;2022-08-25T15:18:57;30.30;67.80
38090;DHT22;23904;52.322;10.232;2022-08-25T15:21:23;30.20;68.10
38090;DHT22;23904;52.322;10.232;2022-08-25T15:23:49;30.20;68.20
38090;DHT22;23904;52.322;10.232;2022-08-25T15:26:15;30.10;68.60
38090;DHT22;23904;52.322;10.232;2022-08-25T15:28:45;30.00;68.70
38090;DHT22;23904;52.322;10.232;2022-08-25T15:31:16;30.00;69.00
38090;DHT22;23904;52.322;10.232;2022-08-25T15:33:41;29.90;68.90
38090;DHT22;23904;52.322;10.232;2022-08-25T15:36:12;29.90;69.00
38090;DHT22;23904;52.322;10.232;2022-08-25T15:38:40;29.90;68.70
38090;DHT22;23904;52.322;10.232;2022-08-25T15:41:07;29.80;68.90
38090;DHT22;23904;52.322;10.232;2022-08-25T15:43:33;29.70;69.20
38090;DHT22;23904;52.322;10.232;2022-08-25T15:45:59;29.50;69.70
38090;DHT22;23904;52.322;10.232;2022-08-25T15:48:24;29.50;70.10
38090;DHT22;23904;52.322;10.232;2022-08-25T15:50:54;29.50;70.00
38090;DHT22;23904;52.322;10.232;2022-08-25T15:53:21;29.60;70.10
38090;DHT22;23904;52.322;10.232;2022-08-25T15:55:48;29.50;70.10
38090;DHT22;23904;52.322;10.232;2022-08-25T15:58:14;29.40;70.30
38090;DHT22;23904;52.322;10.232;2022-08-25T16:00:41;29.30;70.80
38090;DHT22;23904;52.322;10.232;2022-08-25T16:03:07;29.40;70.80
38090;DHT22;23904;52.322;10.232;2022-08-25T16:05:35;29.40;70.70
38090;DHT22;23904;52.322;10.232;2022-08-25T16:08:01;29.30;70.80
38090;DHT22;23904;52.322;10.232;2022-08-25T16:10:26;29.40;70.70
38090;DHT22;23904;52.322;10.232;2022-08-25T16:12:52;29.50;70.90
38090;DHT22;23904;52.322;10.232;2022-08-25T16:15:18;29.50;70.60
38090;DHT22;23904;52.322;10.232;2022-08-25T16:17:43;29.40;70.30
38090;DHT22;23904;52.322;10.232;2022-08-25T16:20:09;29.30;70.30
38090;DHT22;23904;52.322;10.232;2022-08-25T16:22:35;29.30;70.60
38090;DHT22;23904;52.322;10.232;2022-08-25T16:25:01;29.20;70.30
38090;DHT22;23904;52.322;10.232;2022-08-25T16:27:27;29.10;70.60
38090;DHT22;23904;52.322;10.232;2022-08-25T16:29:52;29.10;70.80
38090;DHT22;23904;52.322;10.232;2022-08-25T16:32:18;29.00;71.00
38090;DHT22;23904;52.322;10.232;2022-08-25T16:34:45;28.90;71.50
38090;DHT22;23904;52.322;10.232;2022-08-25T16:37:11;28.90;71.90
38090;DHT22;23904;52.322;10.232;2022-08-25T16:39:37;28.80;72.10
38090;DHT22;23904;52.322;10.232;2022-08-25T16:42:04;28.70;72.40
38090;DHT22;23904;52.322;10.232;2022-08-25T16:44:30;28.70;72.50
38090;DHT22;23904;52.322;10.232;2022-08-25T16:46:55;28.70;72.80
38090;DHT22;23904;52.322;10.232;2022-08-25T16:49:22;28.60;73.20
38090;DHT22;23904;52.322;10.232;2022-08-25T16:51:48;28.60;73.20
38090;DHT22;23904;52.322;10.232;2022-08-25T16:54:13;28.60;73.30
38090;DHT22;23904;52.322;10.232;2022-08-25T16:56:57;28.60;73.40
38090;DHT22;23904;52.322;10.232;2022-08-25T16:59:24;28.60;73.10
38090;DHT22;23904;52.322;10.232;2022-08-25T17:01:50;28.50;73.20
38090;DHT22;23904;52.322;10.232;2022-08-25T17:04:16;28.50;73.30
38090;DHT22;23904;52.322;10.232;2022-08-25T17:06:42;28.50;73.30
38090;DHT22;23904;52.322;10.232;2022-08-25T17:09:09;28.50;73.40
38090;DHT22;23904;52.322;10.232;2022-08-25T17:11:41;28.40;73.00
38090;DHT22;23904;52.322;10.232;2022-08-25T17:14:09;28.30;73.30
38090;DHT22;23904;52.322;10.232;2022-08-25T17:16:35;28.30;73.40
38090;DHT22;23904;52.322;10.232;2022-08-25T17:19:04;28.30;73.60
38090;DHT22;23904;52.322;10.232;2022-08-25T17:21:33;28.20;74.10
38090;DHT22;23904;52.322;10.232;2022-08-25T17:23:59;28.20;74.30
38090;DHT22;23904;52.322;10.232;2022-08-25T17:26:26;28.20;74.40
38090;DHT22;23904;52.322;10.232;2022-08-25T17:28:52;28.20;74.70
38090;DHT22;23904;52.322;10.232;2022-08-25T17:31:18;28.10;75.00
38090;DHT22;23904;52.322;10.232;2022-08-25T17:33:44;28.10;75.20
38090;DHT22;23904;52.322;10.232;2022-08-25T17:36:10;28.10;75.30
38090;DHT22;23904;52.322;10.232;2022-08-25T17:38:37;28.00;75.60
38090;DHT22;23904;52.322;10.232;2022-08-25T17:41:04;28.00;75.50
38090;DHT22;23904;52.322;10.232;2022-08-25T17:43:35;28.00;75.90
38090;DHT22;23904;52.322;10.232;2022-08-25T17:46:02;27.90;76.20
38090;DHT22;23904;52.322;10.232;2022-08-25T17:48:28;27.80;76.50